Time;durP1;ratioP1;P1;durP2;ratioP2;P2;SDS_P1;SDS_P2;PMS_P1;PMS_P2;Temp;Humidity;BMP_temperature;BMP_pressure;BME280_temperature;BME280_humidity;BME280_pressure;Samples;Min_cycle;Max_cycle;Signal;HPM_P1;HPM_P2
2022/04/23 00:01:54;;;;;;;12.02;4.32;;;;;;;13.04;55.46;99550.59;4896401;29;20128;-83
2022/04/23 00:04:19;;;;;;;8.27;3.63;;;;;;;13.20;55.09;99538.63;4896455;29;20032;-83
2022/04/23 00:06:45;;;;;;;11.05;4.15;;;;;;;13.07;55.71;99545.06;4896278;29;20043;-82
2022/04/23 00:09:10;;;;;;;9.75;3.92;;;;;;;12.96;55.68;99534.66;4896404;29;20063;-83
2022/04/23 00:11:35;;;;;;;8.00;4.28;;;;;;;13.00;55.51;99533.41;4896395;29;20059;-82
2022/04/23 00:14:02;;;;;;;14.70;4.10;;;;;;;12.96;55.45;99537.28;4896526;29;20500;-82
2022/04/23 00:16:27;;;;;;;10.77;3.92;;;;;;;12.93;55.73;99532.28;4896401;29;20035;-83
2022/04/23 00:18:53;;;;;;;9.20;4.70;;;;;;;13.19;55.20;99529.06;4896313;29;20028;-83
2022/04/23 00:21:19;;;;;;;11.27;4.38;;;;;;;13.19;54.88;99522.00;4896144;29;20391;-83
2022/04/23 00:23:47;;;;;;;6.22;4.00;;;;;;;13.20;55.05;99513.09;4896443;29;20480;-83
2022/04/23 00:26:13;;;;;;;10.10;4.70;;;;;;;12.96;55.61;99502.22;4896646;29;20043;-83
2022/04/23 00:28:38;;;;;;;10.13;5.05;;;;;;;12.78;56.66;99502.09;4896345;29;20028;-83
2022/04/23 00:31:05;;;;;;;11.52;4.70;;;;;;;12.95;55.94;99488.19;4896248;29;20384;-83
2022/04/23 00:33:32;;;;;;;10.77;4.60;;;;;;;13.15;55.31;99490.78;4896287;29;20497;-83
2022/04/23 00:35:57;;;;;;;7.88;4.20;;;;;;;12.94;55.85;99485.72;4896256;29;20044;-83
2022/04/23 00:38:24;;;;;;;10.27;4.75;;;;;;;13.07;56.02;99483.59;4899686;29;20091;-83
2022/04/23 00:40:50;;;;;;;11.40;4.90;;;;;;;12.66;56.83;99481.19;4899833;29;20024;-83
2022/04/23 00:43:29;;;;;;;9.77;4.55;;;;;;;12.78;56.69;99476.59;4899726;29;20032;-83
2022/04/23 00:45:55;;;;;;;11.68;4.68;;;;;;;12.66;57.08;99470.63;4898567;29;20033;-83
2022/04/23 00:48:21;;;;;;;13.13;5.00;;;;;;;12.78;57.08;99478.41;4899691;29;20384;-83
2022/04/23 00:50:52;;;;;;;12.05;4.93;;;;;;;12.83;56.67;99479.59;4899649;29;20392;-83
2022/04/23 00:53:19;;;;;;;13.10;5.60;;;;;;;12.86;56.67;99481.97;4899638;29;20573;-83
2022/04/23 00:55:46;;;;;;;13.13;5.15;;;;;;;12.78;56.67;99491.56;4899482;29;20029;-83
2022/04/23 00:58:14;;;;;;;9.40;5.50;;;;;;;12.80;57.04;99492.25;4899422;29;20616;-83
2022/04/23 01:00:40;;;;;;;11.63;5.05;;;;;;;12.80;56.95;99465.91;4899124;29;20120;-83
2022/04/23 01:03:07;;;;;;;15.07;5.30;;;;;;;13.12;56.11;99484.00;4898351;29;20052;-82
2022/04/23 01:05:32;;;;;;;10.27;6.18;;;;;;;12.69;57.41;99472.97;4899380;29;20036;-83
2022/04/23 01:08:02;;;;;;;12.23;5.50;;;;;;;12.46;58.12;99464.56;4897960;29;20029;-83
2022/04/23 01:10:28;;;;;;;11.98;5.25;;;;;;;12.97;56.70;99457.25;4899155;29;20477;-83
2022/04/23 01:12:54;;;;;;;12.68;5.32;;;;;;;13.04;56.64;99463.63;4899186;29;20071;-83
2022/04/23 01:15:21;;;;;;;15.55;5.30;;;;;;;12.94;57.07;99447.03;4897864;29;20546;-83
2022/04/23 01:17:47;;;;;;;11.52;5.70;;;;;;;13.16;56.74;99460.81;4899158;29;20025;-83
2022/04/23 01:20:14;;;;;;;15.32;6.90;;;;;;;13.25;56.15;99455.53;4897684;29;20397;-83
2022/04/23 01:22:42;;;;;;;8.70;6.18;;;;;;;13.27;56.43;99455.38;4899059;29;20032;-83
2022/04/23 01:25:10;;;;;;;11.45;4.85;;;;;;;13.07;56.73;99452.81;4898946;29;20032;-83
2022/04/23 01:27:37;;;;;;;13.38;5.85;;;;;;;13.20;56.61;99446.38;4899204;29;20062;-83
2022/04/23 01:30:05;;;;;;;16.88;5.55;;;;;;;12.85;57.91;99447.84;4898865;29;20033;-83
2022/04/23 01:32:30;;;;;;;7.85;5.35;;;;;;;12.90;57.30;99443.84;4898513;29;20507;-83
2022/04/23 01:34:56;;;;;;;15.55;5.50;;;;;;;12.79;58.08;99438.72;4898633;29;20036;-83
2022/04/23 01:37:21;;;;;;;16.73;6.13;;;;;;;12.44;59.11;99444.59;4898823;29;20024;-83
2022/04/23 01:39:47;;;;;;;15.77;6.00;;;;;;;12.86;57.95;99444.28;4898617;29;20391;-83
2022/04/23 01:42:13;;;;;;;11.52;5.32;;;;;;;12.76;58.28;99441.66;4898346;29;20479;-82
2022/04/23 01:44:39;;;;;;;26.13;7.50;;;;;;;12.50;59.00;99433.53;4898701;29;20028;-83
2022/04/23 01:47:05;;;;;;;17.17;6.10;;;;;;;12.92;58.02;99433.16;4898806;29;20021;-82
2022/04/23 01:49:30;;;;;;;18.48;6.72;;;;;;;12.50;59.26;99436.97;4898439;29;20498;-83
2022/04/23 01:51:56;;;;;;;14.73;6.13;;;;;;;12.65;58.84;99437.38;4897280;29;20024;-83
2022/04/23 01:54:21;;;;;;;10.25;6.00;;;;;;;12.72;58.62;99436.78;4898703;29;20028;-83
2022/04/23 01:56:46;;;;;;;19.33;6.18;;;;;;;12.80;58.66;99435.13;4898443;29;20091;-83
2022/04/23 01:59:12;;;;;;;12.70;6.57;;;;;;;12.83;58.59;99426.91;4898134;29;20407;-83
2022/04/23 02:01:37;;;;;;;23.75;7.28;;;;;;;12.82;59.05;99432.34;4898075;29;20484;-83
2022/04/23 02:04:06;;;;;;;13.32;6.70;;;;;;;12.85;58.90;99437.31;4896719;29;20468;-83
2022/04/23 02:06:33;;;;;;;14.43;6.75;;;;;;;12.35;60.44;99422.56;4898195;29;20032;-83
2022/04/23 02:08:59;;;;;;;10.73;6.57;;;;;;;12.90;59.04;99430.66;4898353;29;20025;-83
2022/04/23 02:11:24;;;;;;;14.50;6.28;;;;;;;12.91;59.15;99426.22;4898127;29;20036;-82
2022/04/23 02:13:50;;;;;;;17.90;7.03;;;;;;;13.01;59.04;99418.28;4898060;29;20024;-83
2022/04/23 02:16:16;;;;;;;12.68;8.32;;;;;;;13.00;59.07;99435.06;4898116;29;20395;-83
2022/04/23 02:18:41;;;;;;;14.20;7.10;;;;;;;13.01;59.13;99426.19;4897975;29;20033;-83
2022/04/23 02:21:06;;;;;;;17.02;7.13;;;;;;;13.27;58.51;99427.22;4896893;29;20032;-83
2022/04/23 02:23:32;;;;;;;16.65;7.40;;;;;;;13.01;59.43;99421.75;4897979;29;20027;-83
2022/04/23 02:25:58;;;;;;;21.75;9.02;;;;;;;12.98;59.67;99421.22;4897986;29;20035;-82
2022/04/23 02:28:24;;;;;;;15.85;6.88;;;;;;;13.41;58.81;99425.94;4897881;29;20025;-82
2022/04/23 02:30:49;;;;;;;21.38;8.40;;;;;;;13.25;59.23;99415.97;4897319;29;20035;-83
2022/04/23 02:33:14;;;;;;;21.25;8.18;;;;;;;13.09;59.85;99413.13;4898011;29;20037;-83
2022/04/23 02:35:40;;;;;;;15.43;7.20;;;;;;;13.21;59.69;99406.69;4897276;29;20543;-83
2022/04/23 02:38:05;;;;;;;18.27;7.75;;;;;;;13.08;60.24;99409.66;4896444;29;20024;-83
2022/04/23 02:40:31;;;;;;;17.88;7.95;;;;;;;13.07;60.24;99404.53;4897336;29;20060;-83
2022/04/23 02:42:57;;;;;;;15.60;8.02;;;;;;;13.21;59.98;99408.47;4897603;29;20111;-83
2022/04/23 02:45:25;;;;;;;21.77;7.53;;;;;;;13.19;60.11;99402.53;4897953;29;20063;-83
2022/04/23 02:47:51;;;;;;;21.98;7.68;;;;;;;13.28;59.47;99396.41;4896329;29;20029;-83
2022/04/23 02:50:38;;;;;;;21.55;9.13;;;;;;;13.17;60.17;99383.41;4897721;29;20395;-82
2022/04/23 02:53:07;;;;;;;16.85;8.20;;;;;;;13.36;59.69;99383.34;4897339;29;20487;-83
2022/04/23 02:55:34;;;;;;;19.30;8.25;;;;;;;13.61;59.19;99380.97;4897215;29;20031;-83
2022/04/23 02:58:02;;;;;;;23.55;8.38;;;;;;;13.05;60.74;99372.22;4897217;29;20024;-82
2022/04/23 03:00:28;;;;;;;19.73;8.15;;;;;;;13.38;59.77;99370.84;4896773;29;20028;-83
2022/04/23 03:02:53;;;;;;;16.23;7.75;;;;;;;13.55;59.34;99365.75;4897085;29;20035;-82
2022/04/23 03:05:18;;;;;;;19.85;8.98;;;;;;;13.47;59.72;99359.41;4897044;29;20503;-83
2022/04/23 03:07:45;;;;;;;24.30;8.93;;;;;;;13.46;59.89;99351.63;4897251;29;20373;-82
2022/04/23 03:10:12;;;;;;;22.05;9.20;;;;;;;13.32;60.69;99360.88;4897257;29;20032;-82
2022/04/23 03:12:38;;;;;;;21.00;8.13;;;;;;;13.68;59.26;99355.66;4895674;29;20033;-82
2022/04/23 03:15:09;;;;;;;19.63;8.00;;;;;;;13.71;59.52;99368.56;4896432;29;20040;-82
2022/04/23 03:17:36;;;;;;;22.02;8.88;;;;;;;13.56;59.95;99364.75;4897421;29;20025;-82
2022/04/23 03:20:03;;;;;;;17.95;8.38;;;;;;;13.47;59.96;99364.69;4897028;29;20425;-83
2022/04/23 03:22:28;;;;;;;18.60;8.55;;;;;;;13.35;60.70;99381.69;4897146;29;20403;-83
2022/04/23 03:24:53;;;;;;;18.67;8.65;;;;;;;13.32;60.92;99376.69;4896759;29;20032;-83
2022/04/23 03:27:19;;;;;;;16.17;7.93;;;;;;;13.37;60.91;99369.19;4896991;29;20052;-83
2022/04/23 03:29:44;;;;;;;27.75;9.52;;;;;;;13.64;59.81;99362.22;4896902;29;20029;-83
2022/04/23 03:32:10;;;;;;;21.27;8.07;;;;;;;13.71;59.56;99355.38;4896665;29;20021;-83
2022/04/23 03:34:36;;;;;;;20.70;9.30;;;;;;;13.46;60.46;99355.09;4896819;29;20032;-83
2022/04/23 03:37:01;;;;;;;19.17;8.88;;;;;;;13.41;60.94;99360.00;4896889;29;20029;-83
2022/04/23 03:39:26;;;;;;;19.63;8.77;;;;;;;13.64;60.14;99341.09;4896967;29;20032;-83
2022/04/23 03:41:52;;;;;;;19.33;8.98;;;;;;;13.40;60.60;99346.97;4896627;29;20037;-83
2022/04/23 03:44:17;;;;;;;20.17;7.95;;;;;;;13.20;61.43;99346.22;4896813;29;20028;-83
2022/04/23 03:46:42;;;;;;;20.23;8.40;;;;;;;13.40;60.91;99347.78;4897013;29;20029;-83
2022/04/23 03:49:08;;;;;;;23.25;9.23;;;;;;;13.31;61.38;99343.41;4896554;29;20059;-82
2022/04/23 03:51:34;;;;;;;26.58;9.02;;;;;;;13.34;61.10;99337.00;4896700;29;20116;-82
2022/04/23 03:54:01;;;;;;;25.52;9.77;;;;;;;13.06;62.03;99337.81;4896862;29;20040;-82
2022/04/23 03:56:26;;;;;;;19.83;8.80;;;;;;;12.94;62.11;99336.34;4896784;29;20431;-82
2022/04/23 03:58:52;;;;;;;27.50;9.25;;;;;;;13.22;61.69;99331.09;4896679;29;20098;-82
2022/04/23 04:01:17;;;;;;;33.90;9.93;;;;;;;12.87;62.52;99317.69;4896418;29;20141;-83
2022/04/23 04:03:43;;;;;;;22.40;8.57;;;;;;;13.12;61.95;99327.69;4896291;29;20167;-83
2022/04/23 04:06:09;;;;;;;30.70;10.40;;;;;;;12.95;62.59;99316.91;4896598;29;20029;-83
2022/04/23 04:08:34;;;;;;;18.33;8.93;;;;;;;13.17;61.52;99315.72;4896573;29;20037;-83
2022/04/23 04:11:00;;;;;;;26.48;11.25;;;;;;;12.98;62.76;99316.66;4898679;29;20383;-83
2022/04/23 04:13:25;;;;;;;27.77;10.77;;;;;;;12.52;64.40;99299.94;4898915;29;20053;-83
2022/04/23 04:15:51;;;;;;;22.15;9.65;;;;;;;12.78;64.09;99312.44;4900430;29;20223;-82
2022/04/23 04:18:16;;;;;;;26.38;11.13;;;;;;;12.84;63.29;99296.88;4900476;29;20021;-82
2022/04/23 04:20:42;;;;;;;31.00;10.80;;;;;;;12.94;63.38;99296.84;4899936;29;20043;-83
2022/04/23 04:23:08;;;;;;;25.25;10.35;;;;;;;12.83;64.04;99291.75;4899967;29;20396;-83
2022/04/23 04:25:34;;;;;;;23.00;10.40;;;;;;;12.96;63.42;99299.34;4900011;29;20032;-83
2022/04/23 04:28:01;;;;;;;23.58;10.00;;;;;;;12.93;63.36;99304.88;4900127;29;20027;-83
2022/04/23 04:30:26;;;;;;;27.50;11.32;;;;;;;12.86;63.98;99291.47;4900022;29;20428;-83
2022/04/23 04:32:52;;;;;;;32.25;12.32;;;;;;;13.15;62.60;99307.13;4899965;29;20032;-83
2022/04/23 04:35:17;;;;;;;25.73;10.45;;;;;;;13.22;62.75;99302.09;4899820;29;20028;-82
2022/04/23 04:37:44;;;;;;;16.90;9.85;;;;;;;12.95;63.44;99303.75;4899934;29;20027;-82
2022/04/23 04:40:10;;;;;;;29.40;11.27;;;;;;;13.15;63.04;99296.59;4899746;29;20107;-82
2022/04/23 04:42:36;;;;;;;26.70;10.52;;;;;;;13.22;62.65;99310.81;4899539;29;20120;-83
2022/04/23 04:45:02;;;;;;;26.83;11.55;;;;;;;13.23;62.90;99309.00;4899900;29;20440;-83
2022/04/23 04:47:28;;;;;;;24.33;10.55;;;;;;;13.41;62.40;99307.28;4899793;29;20025;-83
2022/04/23 04:49:54;;;;;;;30.90;11.70;;;;;;;13.39;62.63;99308.38;4899635;29;20036;-83
2022/04/23 04:52:19;;;;;;;29.65;12.32;;;;;;;13.23;62.89;99309.00;4899556;29;20080;-83
2022/04/23 04:54:44;;;;;;;24.75;10.63;;;;;;;13.44;62.42;99300.88;4899377;29;20392;-83
2022/04/23 04:57:10;;;;;;;26.73;11.10;;;;;;;13.47;62.34;99301.41;4899550;29;20028;-83
2022/04/23 04:59:35;;;;;;;27.23;12.00;;;;;;;13.28;62.70;99301.50;4913888;29;20033;-83
2022/04/23 05:02:01;;;;;;;18.23;11.98;;;;;;;13.41;62.37;99294.09;4899187;29;20040;-83
2022/04/23 05:04:27;;;;;;;34.75;12.38;;;;;;;13.35;62.98;99291.19;4899626;29;20159;-83
2022/04/23 05:06:52;;;;;;;26.75;11.93;;;;;;;13.31;63.15;99284.56;4899305;29;20515;-82
2022/04/23 05:09:18;;;;;;;28.63;12.25;;;;;;;13.45;62.58;99287.53;4899105;29;20085;-82
2022/04/23 05:11:44;;;;;;;26.95;11.23;;;;;;;13.30;62.79;99294.28;4899149;29;20503;-83
2022/04/23 05:14:09;;;;;;;23.77;11.85;;;;;;;13.18;63.39;99290.19;4899247;29;20051;-82
2022/04/23 05:16:34;;;;;;;23.42;13.13;;;;;;;13.14;63.82;99291.47;4899180;29;20029;-82
2022/04/23 05:19:00;;;;;;;29.83;13.02;;;;;;;13.11;64.04;99295.19;4899038;29;20057;-83
2022/04/23 05:21:25;;;;;;;30.35;13.75;;;;;;;13.25;63.18;99285.97;4898451;29;20468;-83
2022/04/23 05:23:51;;;;;;;27.30;11.88;;;;;;;13.44;62.67;99296.41;4898742;29;20063;-83
2022/04/23 05:26:16;;;;;;;33.75;14.32;;;;;;;12.89;64.82;99292.00;4898943;29;20028;-83
2022/04/23 05:28:41;;;;;;;25.55;12.60;;;;;;;13.30;63.66;99291.66;4898919;29;20530;-83
2022/04/23 05:31:08;;;;;;;29.15;13.43;;;;;;;12.89;65.03;99291.16;4898790;29;20100;-83
2022/04/23 05:33:34;;;;;;;29.25;13.02;;;;;;;12.86;65.02;99288.84;4898849;29;20032;-83
2022/04/23 05:36:00;;;;;;;26.25;12.55;;;;;;;13.09;64.01;99287.47;4898876;29;20032;-83
2022/04/23 05:38:25;;;;;;;28.33;12.77;;;;;;;13.36;63.25;99287.59;4898712;29;20115;-83
2022/04/23 05:40:51;;;;;;;24.50;11.93;;;;;;;13.53;62.82;99301.78;4898489;29;20025;-83
2022/04/23 05:43:16;;;;;;;43.28;14.60;;;;;;;13.31;63.52;99295.13;4898803;29;20033;-83
2022/04/23 05:45:43;;;;;;;30.70;12.95;;;;;;;13.44;63.33;99290.31;4897434;29;20031;-83
2022/04/23 05:48:09;;;;;;;29.88;12.88;;;;;;;13.33;63.53;99301.91;4898630;29;20407;-83
2022/04/23 05:50:35;;;;;;;30.27;13.57;;;;;;;13.58;62.90;99302.97;4898289;29;20036;-83
2022/04/23 05:53:00;;;;;;;29.55;13.27;;;;;;;13.61;62.82;99291.31;4898503;29;20024;-82
2022/04/23 05:55:25;;;;;;;27.15;11.85;;;;;;;13.30;63.69;99294.28;4898474;29;20063;-83
2022/04/23 05:57:51;;;;;;;26.20;12.43;;;;;;;13.56;63.47;99298.84;4897015;29;20035;-82
2022/04/23 06:00:17;;;;;;;26.10;12.20;;;;;;;13.39;63.88;99293.41;4898386;29;20100;-82
2022/04/23 06:02:42;;;;;;;24.35;13.63;;;;;;;13.25;64.25;99285.97;4897987;29;20040;-83
2022/04/23 06:05:08;;;;;;;32.67;12.68;;;;;;;13.10;64.25;99273.28;4898292;29;20380;-83
2022/04/23 06:07:34;;;;;;;29.30;13.55;;;;;;;13.34;64.09;99279.84;4898113;29;20502;-82
2022/04/23 06:10:00;;;;;;;20.88;12.48;;;;;;;13.53;63.53;99276.25;4898341;29;20039;-82
2022/04/23 06:12:25;;;;;;;34.03;13.73;;;;;;;13.46;63.67;99267.25;4898246;29;20029;-83
2022/04/23 06:14:51;;;;;;;28.48;12.73;;;;;;;12.83;65.78;99278.59;4897982;29;20438;-83
2022/04/23 06:17:23;;;;;;;37.65;13.65;;;;;;;13.12;64.50;99281.06;4896186;29;20028;-83
2022/04/23 06:19:49;;;;;;;27.70;12.60;;;;;;;12.83;65.84;99273.31;4897294;29;20025;-83
2022/04/23 06:22:14;;;;;;;28.38;11.85;;;;;;;13.39;64.69;99282.88;4893253;29;20422;-83
2022/04/23 06:24:40;;;;;;;38.15;14.18;;;;;;;13.37;64.50;99276.91;4892878;29;20091;-83
2022/04/23 06:27:05;;;;;;;24.42;12.45;;;;;;;13.36;64.31;99277.06;4892803;29;20419;-83
2022/04/23 06:29:30;;;;;;;26.52;11.23;;;;;;;13.46;63.79;99289.19;4892941;29;20524;-83
2022/04/23 06:31:56;;;;;;;23.48;12.05;;;;;;;13.46;63.94;99283.09;4892409;29;20047;-83
2022/04/23 06:34:21;;;;;;;29.20;13.23;;;;;;;13.52;64.09;99276.38;4892191;29;20043;-83
2022/04/23 06:36:46;;;;;;;29.15;11.75;;;;;;;13.64;63.72;99277.81;4892483;29;20036;-83
2022/04/23 06:39:12;;;;;;;29.88;11.70;;;;;;;13.81;63.16;99286.69;4892413;29;20036;-82
2022/04/23 06:41:37;;;;;;;29.65;12.10;;;;;;;13.59;63.73;99295.91;4892297;29;20032;-83
2022/04/23 06:44:03;;;;;;;28.30;11.65;;;;;;;14.19;61.86;99290.75;4892554;29;20100;-82
2022/04/23 06:46:28;;;;;;;23.50;10.80;;;;;;;14.48;61.17;99289.63;4892114;29;20044;-83
2022/04/23 06:48:53;;;;;;;26.02;13.20;;;;;;;14.27;61.38;99293.44;4891327;29;20029;-83
2022/04/23 06:51:19;;;;;;;21.48;11.77;;;;;;;14.44;60.68;99293.56;4892251;29;20617;-82
2022/04/23 06:53:45;;;;;;;29.23;12.30;;;;;;;14.25;61.73;99298.06;4892646;29;20029;-83
2022/04/23 06:56:10;;;;;;;26.90;11.93;;;;;;;14.36;61.51;99297.00;4892985;29;20099;-82
2022/04/23 06:58:36;;;;;;;29.55;11.18;;;;;;;14.58;60.99;99287.72;4892077;29;20399;-83
2022/04/23 07:01:02;;;;;;;30.38;12.15;;;;;;;14.68;60.46;99296.34;4891884;29;20757;-83
2022/04/23 07:03:27;;;;;;;26.85;12.05;;;;;;;14.38;61.54;99276.53;4891723;29;20405;-82
2022/04/23 07:05:53;;;;;;;27.05;12.13;;;;;;;14.47;61.51;99280.88;4892122;29;20036;-82
2022/04/23 07:08:18;;;;;;;29.25;11.57;;;;;;;14.40;61.51;99286.94;4892110;29;20056;-83
2022/04/23 07:10:44;;;;;;;30.20;12.68;;;;;;;14.34;62.33;99282.28;4891945;29;20400;-83
2022/04/23 07:13:11;;;;;;;24.83;11.95;;;;;;;14.60;61.71;99304.25;4892122;29;20440;-83
2022/04/23 07:15:37;;;;;;;22.27;12.02;;;;;;;14.71;60.92;99299.66;4891893;29;20032;-83
2022/04/23 07:18:03;;;;;;;23.63;10.68;;;;;;;14.50;61.10;99295.59;4891238;29;20421;-83
2022/04/23 07:20:28;;;;;;;22.85;10.68;;;;;;;14.84;60.75;99305.34;4891784;29;20152;-84
2022/04/23 07:25:38;;;;;;;27.60;11.60;;;;;;;14.77;60.60;99309.59;4892224;29;20158;-84
2022/04/23 07:28:04;;;;;;;25.73;10.73;;;;;;;15.15;59.67;99321.50;4892325;29;20063;-83
2022/04/23 07:30:30;;;;;;;28.10;10.70;;;;;;;15.14;59.80;99308.44;4891815;29;20044;-82
2022/04/23 07:32:57;;;;;;;23.13;10.32;;;;;;;15.08;59.88;99315.19;4894942;29;20119;-82
2022/04/23 07:38:15;;;;;;;23.90;10.48;;;;;;;15.52;58.65;99308.84;4897164;29;20071;-83
2022/04/23 07:40:41;;;;;;;21.45;10.15;;;;;;;15.60;58.56;99312.34;4896479;29;20037;-83
2022/04/23 07:43:12;;;;;;;25.38;9.60;;;;;;;15.64;58.36;99305.75;4896966;29;20491;-82
2022/04/23 07:45:38;;;;;;;19.90;10.07;;;;;;;15.49;59.15;99309.19;4905846;29;20058;-82
2022/04/23 07:48:09;;;;;;;24.38;9.40;;;;;;;15.61;58.82;99303.41;4914435;29;20060;-82
2022/04/23 07:50:36;;;;;;;29.45;9.30;;;;;;;15.78;57.57;99299.00;4903214;29;20032;-83
2022/04/23 07:53:03;;;;;;;22.83;10.00;;;;;;;16.15;57.83;99299.47;4902221;29;20036;-83
2022/04/23 07:55:38;;;;;;;21.48;10.05;;;;;;;15.97;57.70;99303.13;4902565;29;20048;-83
2022/04/23 07:58:05;;;;;;;28.00;9.70;;;;;;;15.93;57.58;99300.97;4900241;29;20024;-82
2022/04/23 08:00:31;;;;;;;28.73;10.00;;;;;;;15.64;58.97;99303.09;4902676;29;20089;-83
2022/04/23 08:02:57;;;;;;;22.83;9.60;;;;;;;15.53;58.99;99295.47;4902625;29;20127;-83
2022/04/23 08:05:23;;;;;;;17.58;9.02;;;;;;;15.82;58.26;99292.38;4902252;29;20120;-83
2022/04/23 08:07:48;;;;;;;24.85;9.30;;;;;;;15.93;57.85;99295.69;4902534;29;20115;-83
2022/04/23 08:10:14;;;;;;;18.42;8.82;;;;;;;16.55;56.10;99287.97;4902486;29;20075;-84
2022/04/23 08:12:39;;;;;;;28.15;9.68;;;;;;;16.98;54.63;99291.16;4902568;29;20554;-85
2022/04/23 08:15:05;;;;;;;19.58;8.43;;;;;;;17.10;54.70;99293.41;4902283;29;20507;-84
2022/04/23 08:17:31;;;;;;;24.35;9.35;;;;;;;16.89;54.85;99284.25;4902756;29;20040;-85
2022/04/23 08:19:57;;;;;;;19.67;8.63;;;;;;;17.27;54.05;99289.69;4901713;29;20028;-85
2022/04/23 08:22:23;;;;;;;23.65;9.98;;;;;;;16.99;54.63;99292.00;4902165;29;20032;-84
2022/04/23 08:24:49;;;;;;;28.85;11.05;;;;;;;17.30;53.92;99288.50;4900865;29;20028;-85
2022/04/23 08:27:14;;;;;;;19.95;8.75;;;;;;;17.50;53.67;99288.88;4900988;29;20056;-85
2022/04/23 08:32:24;;;;;;;24.00;8.85;;;;;;;17.33;53.41;99275.72;4903329;29;20044;-85
2022/04/23 08:34:49;;;;;;;22.77;8.73;;;;;;;16.80;54.90;99290.53;4902517;29;20040;-84
2022/04/23 08:37:14;;;;;;;26.63;9.93;;;;;;;17.04;55.02;99286.97;4902751;29;20135;-85
2022/04/23 08:39:42;;;;;;;22.65;10.70;;;;;;;17.26;54.40;99280.09;4901953;29;20048;-85
2022/04/23 08:42:09;;;;;;;19.20;8.25;;;;;;;17.40;53.66;99271.38;4901668;29;20475;-84
2022/04/23 08:44:37;;;;;;;18.63;9.02;;;;;;;17.50;53.15;99271.13;4902175;29;20097;-85
2022/04/23 08:47:04;;;;;;;20.02;8.80;;;;;;;17.79;52.48;99290.81;4901184;29;20511;-84
2022/04/23 08:49:32;;;;;;;19.05;8.75;;;;;;;18.42;51.75;99272.81;4902543;29;20033;-85
2022/04/23 08:52:21;;;;;;;19.83;9.45;;;;;;;20.24;47.12;99272.78;4902174;29;20116;-84
2022/04/23 08:54:47;;;;;;;19.67;9.23;;;;;;;20.09;47.10;99277.38;4902002;29;20484;-85
2022/04/23 08:57:12;;;;;;;16.38;8.40;;;;;;;19.18;48.33;99269.94;4898888;29;20048;-84
2022/04/23 08:59:38;;;;;;;18.17;9.57;;;;;;;19.15;48.42;99275.63;4898484;29;20116;-85
2022/04/23 09:02:14;;;;;;;15.73;7.60;;;;;;;19.17;48.96;99265.63;4898379;29;20036;-84
2022/04/23 09:04:42;;;;;;;19.50;9.25;;;;;;;18.76;49.23;99290.03;4898734;29;20391;-84
2022/04/23 09:07:20;;;;;;;17.33;9.15;;;;;;;17.83;51.57;99273.50;4898578;29;20523;-84
2022/04/23 09:09:53;;;;;;;27.00;11.45;;;;;;;17.94;51.50;99280.28;4898885;29;20365;-84
2022/04/23 09:12:20;;;;;;;20.65;8.50;;;;;;;18.14;51.39;99276.09;4898032;29;20095;-84
2022/04/23 09:14:46;;;;;;;14.70;8.60;;;;;;;18.42;50.49;99278.13;4898553;29;20031;-84
2022/04/23 09:25:39;;;;;;;21.48;10.00;;;;;;;18.04;50.93;99291.47;4886382;29;20070;-83
2022/04/23 09:28:29;;;;;;;17.60;9.48;;;;;;;18.86;49.06;99290.66;4896338;29;20032;-83
2022/04/23 09:30:56;;;;;;;22.02;9.98;;;;;;;19.20;48.62;99276.72;4898234;29;20036;-83
2022/04/23 09:33:27;;;;;;;18.15;9.82;;;;;;;18.71;48.97;99276.50;4899016;29;20063;-83
2022/04/23 09:36:01;;;;;;;15.85;10.32;;;;;;;18.81;48.89;99287.69;4898935;29;20505;-83
2022/04/23 09:38:28;;;;;;;20.95;10.35;;;;;;;18.77;49.33;99291.72;4898997;29;20033;-83
2022/04/23 09:40:58;;;;;;;19.45;10.52;;;;;;;18.93;49.00;99288.88;4898610;29;20040;-83
2022/04/23 09:43:29;;;;;;;19.52;10.73;;;;;;;18.93;48.40;99296.84;4898631;29;20060;-83
2022/04/23 09:46:08;;;;;;;17.10;10.33;;;;;;;19.27;47.43;99279.44;4898245;29;20029;-83
2022/04/23 09:48:34;;;;;;;22.85;10.75;;;;;;;19.61;47.39;99288.63;4898913;29;20731;-83
2022/04/23 09:51:00;;;;;;;21.02;9.85;;;;;;;20.40;45.38;99277.78;4898570;29;20029;-83
2022/04/23 09:53:27;;;;;;;19.40;9.98;;;;;;;19.98;47.04;99284.88;4898342;29;20043;-83
2022/04/23 09:55:59;;;;;;;17.13;10.98;;;;;;;20.21;46.43;99289.94;4898666;29;20033;-83
2022/04/23 09:58:26;;;;;;;23.85;10.80;;;;;;;20.12;46.10;99279.63;4898292;29;20033;-83
2022/04/23 10:00:52;;;;;;;20.63;12.38;;;;;;;19.47;46.60;99279.66;4898300;29;20047;-84
2022/04/23 10:03:19;;;;;;;19.13;10.65;;;;;;;19.68;46.57;99281.50;4898691;29;20060;-83
2022/04/23 10:05:48;;;;;;;15.25;10.45;;;;;;;20.00;46.24;99282.00;4898232;29;20484;-83
2022/04/23 10:08:16;;;;;;;15.27;10.02;;;;;;;20.12;46.08;99282.28;4898109;29;20028;-83
2022/04/23 10:10:59;;;;;;;15.50;10.52;;;;;;;20.18;45.83;99276.19;4898245;29;20025;-83
2022/04/23 10:13:28;;;;;;;18.58;10.63;;;;;;;19.75;46.55;99277.09;4898154;29;20028;-83
2022/04/23 10:15:55;;;;;;;16.45;10.05;;;;;;;19.94;46.71;99277.44;4898149;29;20029;-84
2022/04/23 10:18:21;;;;;;;18.45;10.85;;;;;;;19.64;46.45;99288.22;4898141;29;20054;-83
2022/04/23 10:20:55;;;;;;;17.08;10.60;;;;;;;19.58;46.69;99291.63;4897809;29;20059;-83
2022/04/23 10:23:42;;;;;;;17.02;10.65;;;;;;;19.52;46.44;99279.09;4897991;29;20028;-84
2022/04/23 10:26:23;;;;;;;17.83;10.02;;;;;;;19.18;47.45;99293.88;4897964;29;20464;-83
2022/04/23 10:28:50;;;;;;;15.18;10.30;;;;;;;19.13;47.75;99293.63;4898165;29;20028;-83
2022/04/23 10:31:16;;;;;;;19.38;11.25;;;;;;;19.20;47.61;99294.53;4896742;29;20452;-83
2022/04/23 10:33:44;;;;;;;14.55;9.38;;;;;;;19.59;47.32;99296.78;4896616;29;20029;-83
2022/04/23 10:36:10;;;;;;;21.65;11.15;;;;;;;19.57;46.95;99303.31;4897682;29;20024;-83
2022/04/23 10:38:42;;;;;;;21.38;11.15;;;;;;;19.56;46.82;99302.47;4897717;29;20037;-83
2022/04/23 10:41:10;;;;;;;26.70;10.63;;;;;;;19.70;46.48;99294.63;4897622;29;20032;-83
2022/04/23 10:43:46;;;;;;;27.15;12.48;;;;;;;19.90;46.35;99306.31;4897611;29;20024;-83
2022/04/23 10:46:37;;;;;;;22.35;11.82;;;;;;;18.88;47.63;99312.56;4897211;29;20032;-83
2022/04/23 10:49:21;;;;;;;17.60;11.23;;;;;;;19.41;47.24;99307.03;4897198;29;20036;-83
2022/04/23 10:51:48;;;;;;;20.45;10.70;;;;;;;19.27;47.36;99308.72;4897552;29;20047;-83
2022/04/23 10:54:16;;;;;;;15.75;10.60;;;;;;;18.92;47.85;99324.47;4897551;29;20392;-83
2022/04/23 10:56:42;;;;;;;18.70;11.70;;;;;;;19.18;47.85;99315.19;4896170;29;20436;-83
2022/04/23 10:59:34;;;;;;;17.50;11.95;;;;;;;19.15;47.51;99313.69;4897312;29;20067;-83
2022/04/23 11:02:04;;;;;;;19.60;10.65;;;;;;;18.98;47.54;99298.97;4897100;29;20028;-83
2022/04/23 11:04:29;;;;;;;20.83;11.32;;;;;;;19.39;47.05;99301.91;4897378;29;20032;-83
2022/04/23 11:12:37;;;;;;;16.45;11.60;;;;;;;19.37;46.50;99287.97;4903447;29;20080;-83
2022/04/23 11:15:17;;;;;;;18.42;12.27;;;;;;;19.26;47.18;99301.75;4897670;29;20173;-83
2022/04/23 11:17:53;;;;;;;16.42;11.88;;;;;;;20.14;45.56;99297.09;4895763;29;20053;-83
2022/04/23 11:20:34;;;;;;;17.77;11.77;;;;;;;20.02;45.88;99290.63;4896341;29;20380;-83
2022/04/23 11:23:01;;;;;;;18.27;11.65;;;;;;;19.80;46.13;99298.63;4896912;29;20505;-83
2022/04/23 11:25:26;;;;;;;15.25;10.73;;;;;;;19.98;45.40;99298.19;4897267;29;20495;-83
2022/04/23 11:27:53;;;;;;;16.10;10.77;;;;;;;20.11;45.85;99305.47;4896990;29;20033;-83
2022/04/23 11:30:27;;;;;;;18.25;11.82;;;;;;;20.11;45.35;99315.31;4896829;29;20033;-83
2022/04/23 11:32:53;;;;;;;16.48;10.77;;;;;;;20.53;44.54;99314.34;4897081;29;20044;-83
2022/04/23 11:35:28;;;;;;;14.73;9.85;;;;;;;20.80;44.28;99314.56;4897081;29;20391;-83
2022/04/23 11:37:53;;;;;;;17.70;11.93;;;;;;;20.35;44.85;99311.38;4896981;29;20028;-83
2022/04/23 11:40:23;;;;;;;19.77;12.77;;;;;;;20.28;44.84;99300.69;4896918;29;20039;-83
2022/04/23 11:42:49;;;;;;;21.27;10.75;;;;;;;20.46;45.11;99313.50;4897000;29;20036;-83
2022/04/23 11:45:17;;;;;;;15.95;10.60;;;;;;;21.03;44.59;99314.25;4896359;29;20040;-83